createdAt,value
2018-04-29T00:00:17.629Z,963.86
2018-04-29T00:01:17.655Z,963.90
2018-04-29T00:02:17.699Z,963.87
2018-04-29T00:03:17.748Z,963.86
2018-04-29T00:04:17.796Z,963.87
2018-04-29T00:05:17.885Z,963.90
2018-04-29T00:06:17.895Z,963.87
2018-04-29T00:07:17.944Z,963.89
2018-04-29T00:08:17.992Z,963.84
2018-04-29T00:09:18.045Z,963.86
2018-04-29T00:10:18.125Z,963.87
2018-04-29T00:11:18.142Z,963.89
2018-04-29T00:12:18.190Z,963.85
2018-04-29T00:13:18.240Z,963.86
2018-04-29T00:14:18.288Z,963.88
2018-04-29T00:15:18.369Z,963.92
2018-04-29T00:16:18.386Z,963.88
2018-04-29T00:17:18.460Z,963.88
2018-04-29T00:18:18.486Z,963.90
2018-04-29T00:19:18.539Z,963.89
2018-04-29T00:20:18.587Z,963.88
2018-04-29T00:21:18.632Z,963.91
2018-04-29T00:22:18.704Z,963.92
2018-04-29T00:23:18.730Z,963.89
2018-04-29T00:24:18.776Z,963.88
2018-04-29T00:25:18.827Z,963.89
2018-04-29T00:26:18.877Z,963.89
2018-04-29T00:27:18.949Z,963.88
2018-04-29T00:28:18.974Z,963.87
2018-04-29T00:29:19.023Z,963.90
2018-04-29T00:30:19.072Z,963.88
2018-04-29T00:31:19.149Z,963.90
2018-04-29T00:32:19.171Z,963.88
2018-04-29T00:33:19.241Z,963.87
2018-04-29T00:34:19.269Z,963.80
2018-04-29T00:35:19.317Z,963.81
2018-04-29T00:36:19.365Z,963.81
2018-04-29T00:37:19.417Z,963.75
2018-04-29T00:38:19.485Z,963.74
2018-04-29T00:39:19.535Z,963.77
2018-04-29T00:40:19.560Z,963.71
2018-04-29T00:41:19.609Z,963.69
2018-04-29T00:42:19.661Z,963.63
2018-04-29T00:43:19.709Z,963.65
2018-04-29T00:44:19.790Z,963.68
2018-04-29T00:45:19.807Z,963.69
2018-04-29T00:46:19.854Z,963.68
2018-04-29T00:47:19.914Z,963.72
2018-04-29T00:48:19.952Z,963.73
2018-04-29T00:49:20.024Z,963.76
2018-04-29T00:50:20.050Z,963.80
2018-04-29T00:51:20.101Z,963.79
2018-04-29T00:52:20.148Z,963.81
2018-04-29T00:53:20.275Z,963.78
2018-04-29T00:54:20.283Z,963.80
2018-04-29T00:55:20.295Z,963.78
2018-04-29T00:56:20.347Z,963.82
2018-04-29T00:57:20.394Z,963.83
2018-04-29T00:58:20.449Z,963.84
2018-04-29T00:59:20.520Z,963.87
2018-04-29T01:00:20.539Z,963.84
2018-04-29T01:01:20.594Z,963.88
2018-04-29T01:02:20.636Z,963.92
2018-04-29T01:03:20.686Z,963.99
2018-04-29T01:04:20.767Z,964.00
2018-04-29T01:05:20.783Z,964.03
2018-04-29T01:06:20.834Z,964.03
2018-04-29T01:07:20.887Z,964.08
2018-04-29T01:08:20.928Z,964.05
2018-04-29T01:09:21.019Z,964.04
2018-04-29T01:10:21.029Z,964.00
2018-04-29T01:11:21.076Z,964.04
2018-04-29T01:12:21.125Z,964.03
2018-04-29T01:13:21.176Z,964.01
2018-04-29T01:14:21.245Z,964.02
2018-04-29T01:15:21.301Z,964.04
2018-04-29T01:16:21.320Z,964.04
2018-04-29T01:17:21.369Z,964.01
2018-04-29T01:18:21.419Z,963.99
2018-04-29T01:19:21.464Z,964.00
2018-04-29T01:20:21.535Z,964.03
2018-04-29T01:21:21.586Z,964.10
2018-04-29T01:22:21.612Z,964.17
2018-04-29T01:23:21.663Z,964.17
2018-04-29T01:24:21.709Z,964.13
2018-04-29T01:25:21.760Z,964.09
2018-04-29T01:26:21.831Z,964.11
2018-04-29T01:27:21.856Z,964.17
2018-04-29T01:28:21.906Z,964.23
2018-04-29T01:29:21.952Z,964.20
2018-04-29T01:30:22.003Z,964.21
2018-04-29T01:31:22.074Z,964.07
2018-04-29T01:32:22.103Z,964.01
2018-04-29T01:33:22.148Z,963.99
2018-04-29T01:34:22.197Z,964.07
2018-04-29T01:35:22.247Z,964.12
2018-04-29T01:36:22.328Z,964.13
2018-04-29T01:37:22.340Z,964.17
2018-04-29T01:38:22.392Z,964.15
2018-04-29T01:39:22.439Z,964.13
2018-04-29T01:40:22.487Z,964.09
2018-04-29T01:41:22.573Z,964.12
2018-04-29T01:42:22.587Z,964.12
2018-04-29T01:43:22.635Z,964.14
2018-04-29T01:44:22.683Z,964.13
2018-04-29T01:45:22.730Z,964.15
2018-04-29T01:46:22.877Z,964.14
2018-04-29T01:47:22.852Z,964.14
2018-04-29T01:48:22.875Z,964.15
2018-04-29T01:49:22.930Z,964.13
2018-04-29T01:50:22.974Z,964.12
2018-04-29T01:51:23.027Z,964.12
2018-04-29T01:52:23.102Z,964.12
2018-04-29T01:53:23.123Z,964.14
2018-04-29T01:54:23.169Z,964.12
2018-04-29T01:55:23.217Z,964.11
2018-04-29T01:56:23.264Z,964.10
2018-04-29T01:57:23.337Z,964.16
2018-04-29T01:58:23.386Z,964.14
2018-04-29T01:59:23.413Z,964.14
2018-04-29T02:00:23.459Z,964.12
2018-04-29T02:01:23.508Z,964.09
2018-04-29T02:02:23.559Z,964.08
2018-04-29T02:03:23.638Z,964.06
2018-04-29T02:04:23.657Z,964.08
2018-04-29T02:05:23.701Z,964.06
2018-04-29T02:06:23.750Z,964.04
2018-04-29T02:07:23.799Z,963.96
2018-04-29T02:08:23.878Z,963.98
2018-04-29T02:09:23.899Z,963.95
2018-04-29T02:10:23.945Z,963.89
2018-04-29T02:11:23.993Z,963.93
2018-04-29T02:12:24.041Z,963.90
2018-04-29T02:13:24.113Z,963.92
2018-04-29T02:14:24.163Z,963.92
2018-04-29T02:15:24.186Z,963.93
2018-04-29T02:16:24.235Z,963.93
2018-04-29T02:17:24.282Z,963.96
2018-04-29T02:18:24.334Z,963.99
2018-04-29T02:19:24.407Z,963.96
2018-04-29T02:20:24.427Z,964.06
2018-04-29T02:21:24.475Z,964.01
2018-04-29T02:22:24.528Z,964.08
2018-04-29T02:23:24.576Z,964.06
2018-04-29T02:24:24.652Z,964.08
2018-04-29T02:25:24.669Z,964.08
2018-04-29T02:26:24.719Z,964.10
2018-04-29T02:27:24.767Z,964.08
2018-04-29T02:28:24.815Z,964.07
2018-04-29T02:29:24.893Z,964.04
2018-04-29T02:30:24.913Z,964.06
2018-04-29T02:31:25.015Z,964.08
2018-04-29T02:32:25.007Z,964.13
2018-04-29T02:33:25.059Z,964.09
2018-04-29T02:34:25.108Z,964.08
2018-04-29T02:35:25.185Z,964.09
2018-04-29T02:36:25.236Z,964.07
2018-04-29T02:37:25.248Z,964.07
2018-04-29T02:38:25.299Z,964.09
2018-04-29T02:39:25.351Z,964.09
2018-04-29T02:40:25.396Z,964.13
2018-04-29T02:41:25.472Z,964.10
2018-04-29T02:42:25.493Z,964.07
2018-04-29T02:43:25.546Z,964.05
2018-04-29T02:44:25.607Z,964.02
2018-04-29T02:45:25.633Z,964.04
2018-04-29T02:46:25.719Z,964.04
2018-04-29T02:47:25.732Z,964.00
2018-04-29T02:48:25.779Z,964.01
2018-04-29T02:49:25.830Z,963.99
2018-04-29T02:50:25.878Z,964.01
2018-04-29T02:51:25.949Z,963.99
2018-04-29T02:52:25.972Z,963.96
2018-04-29T02:53:26.022Z,963.93
2018-04-29T02:54:26.069Z,963.94
2018-04-29T02:55:26.115Z,963.96
2018-04-29T02:56:26.197Z,963.93
2018-04-29T02:57:26.221Z,963.91
2018-04-29T02:58:26.263Z,963.90
2018-04-29T02:59:26.309Z,963.91
2018-04-29T03:00:26.356Z,963.92
2018-04-29T03:01:26.442Z,963.95
2018-04-29T03:02:26.453Z,963.94
2018-04-29T03:03:26.501Z,963.94
2018-04-29T03:04:26.549Z,963.97
2018-04-29T03:05:26.596Z,963.89
2018-04-29T03:06:26.666Z,963.92
2018-04-29T03:07:26.722Z,963.94
2018-04-29T03:08:26.738Z,963.88
2018-04-29T03:09:26.789Z,963.93
2018-04-29T03:10:26.838Z,963.93
2018-04-29T03:11:26.888Z,963.92
2018-04-29T03:12:26.962Z,963.92
2018-04-29T03:13:26.984Z,963.88
2018-04-29T03:14:27.029Z,963.81
2018-04-29T03:15:27.074Z,963.80
2018-04-29T03:16:27.625Z,963.80
2018-04-29T03:17:27.194Z,963.81
2018-04-29T03:18:27.241Z,963.86
2018-04-29T03:19:27.278Z,963.84
2018-04-29T03:20:27.313Z,963.83
2018-04-29T03:21:27.360Z,963.85
2018-04-29T03:22:27.414Z,963.87
2018-04-29T03:23:27.482Z,963.87
2018-04-29T03:24:27.503Z,963.82
2018-04-29T03:25:27.552Z,963.82
2018-04-29T03:26:27.600Z,963.78
2018-04-29T03:27:27.649Z,963.79
2018-04-29T03:28:27.721Z,963.81
2018-04-29T03:29:27.771Z,963.80
2018-04-29T03:30:27.796Z,963.82
2018-04-29T03:31:27.841Z,963.79
2018-04-29T03:32:27.897Z,963.74
2018-04-29T03:33:27.935Z,963.77
2018-04-29T03:34:28.013Z,963.76
2018-04-29T03:35:28.031Z,963.78
2018-04-29T03:36:28.079Z,963.74
2018-04-29T03:37:28.127Z,963.75
2018-04-29T03:38:28.176Z,963.75
2018-04-29T03:39:28.247Z,963.72
2018-04-29T03:40:28.276Z,963.76
2018-04-29T03:41:28.318Z,963.71
2018-04-29T03:42:28.367Z,963.64
2018-04-29T03:43:28.414Z,963.64
2018-04-29T03:44:28.495Z,963.59
2018-04-29T03:45:28.511Z,963.61
2018-04-29T03:46:28.557Z,963.60
2018-04-29T03:47:28.606Z,963.58
2018-04-29T03:48:28.654Z,963.58
2018-04-29T03:49:28.739Z,963.58
2018-04-29T03:50:28.749Z,963.59
2018-04-29T03:51:28.797Z,963.66
2018-04-29T03:52:28.850Z,963.58
2018-04-29T03:53:28.892Z,963.63
2018-04-29T03:54:28.969Z,963.58
2018-04-29T03:55:28.989Z,963.61
2018-04-29T03:56:29.035Z,963.66
2018-04-29T03:57:29.091Z,963.64
2018-04-29T03:58:29.135Z,963.70
2018-04-29T03:59:29.204Z,963.72
2018-04-29T04:00:29.226Z,963.72
2018-04-29T04:01:29.303Z,963.73
2018-04-29T04:02:29.393Z,963.77
2018-04-29T04:03:29.370Z,963.77
2018-04-29T04:04:29.419Z,963.77
2018-04-29T04:05:29.466Z,963.75
2018-04-29T04:06:29.539Z,963.72
2018-04-29T04:07:29.569Z,963.74
2018-04-29T04:08:29.611Z,963.72
2018-04-29T04:09:29.658Z,963.67
2018-04-29T04:10:29.735Z,963.62
2018-04-29T04:11:29.782Z,963.55
2018-04-29T04:12:29.802Z,963.58
2018-04-29T04:13:29.850Z,963.55
2018-04-29T04:14:29.901Z,963.53
2018-04-29T04:15:29.947Z,963.52
2018-04-29T04:16:30.023Z,963.51
2018-04-29T04:17:30.042Z,963.50
2018-04-29T04:18:30.090Z,963.53
2018-04-29T04:19:30.138Z,963.60
2018-04-29T04:20:30.261Z,963.66
2018-04-29T04:21:30.259Z,963.73
2018-04-29T04:22:30.284Z,963.84
2018-04-29T04:23:30.355Z,963.88
2018-04-29T04:24:30.377Z,963.95
2018-04-29T04:25:30.425Z,964.00
2018-04-29T04:26:30.476Z,964.00
2018-04-29T04:27:30.527Z,964.02
2018-04-29T04:28:30.593Z,963.96
2018-04-29T04:29:30.618Z,963.98
2018-04-29T04:30:30.671Z,963.92
2018-04-29T04:31:30.713Z,963.89
2018-04-29T04:32:30.762Z,963.85
2018-04-29T04:33:30.834Z,963.83
2018-04-29T04:34:30.860Z,963.81
2018-04-29T04:35:30.912Z,963.84
2018-04-29T04:36:30.962Z,963.87
2018-04-29T04:37:31.045Z,963.87
2018-04-29T04:38:31.636Z,963.84
2018-04-29T04:39:31.103Z,963.79
2018-04-29T04:40:31.154Z,963.80
2018-04-29T04:41:31.202Z,963.74
2018-04-29T04:42:31.274Z,963.70
2018-04-29T04:43:31.293Z,963.64
2018-04-29T04:44:31.376Z,963.58
2018-04-29T04:45:31.391Z,963.52
2018-04-29T04:46:31.439Z,963.47
2018-04-29T04:47:31.489Z,963.43
2018-04-29T04:48:31.537Z,963.40
2018-04-29T04:49:31.615Z,963.41
2018-04-29T04:50:31.636Z,963.40
2018-04-29T04:51:31.685Z,963.38
2018-04-29T04:52:31.732Z,963.40
2018-04-29T04:53:31.793Z,963.35
2018-04-29T04:54:31.853Z,963.27
2018-04-29T04:55:31.877Z,963.19
2018-04-29T04:56:31.925Z,963.06
2018-04-29T04:57:31.976Z,963.08
2018-04-29T04:58:32.062Z,962.99
2018-04-29T04:59:32.078Z,963.02
2018-04-29T05:00:32.120Z,963.06
2018-04-29T05:01:32.171Z,963.02
2018-04-29T05:02:32.219Z,963.00
2018-04-29T05:03:32.297Z,962.98
2018-04-29T05:04:32.315Z,963.03
2018-04-29T05:05:32.363Z,962.97
2018-04-29T05:06:32.414Z,963.01
2018-04-29T05:07:32.461Z,963.04
2018-04-29T05:08:32.549Z,963.11
2018-04-29T05:09:32.558Z,963.15
2018-04-29T05:10:32.606Z,963.06
2018-04-29T05:11:32.657Z,963.03
2018-04-29T05:12:32.704Z,963.00
2018-04-29T05:13:32.779Z,962.96
2018-04-29T05:14:32.806Z,962.95
2018-04-29T05:15:32.889Z,962.94
2018-04-29T05:16:32.904Z,962.91
2018-04-29T05:17:32.947Z,962.90
2018-04-29T05:18:32.998Z,962.87
2018-04-29T05:19:33.045Z,962.88
2018-04-29T05:20:33.115Z,962.88
2018-04-29T05:21:33.144Z,962.94
2018-04-29T05:22:33.190Z,962.91
2018-04-29T05:23:33.242Z,962.96
2018-04-29T05:24:33.287Z,962.93
2018-04-29T05:25:33.375Z,962.91
2018-04-29T05:26:33.427Z,962.90
2018-04-29T05:27:33.435Z,962.89
2018-04-29T05:28:33.482Z,962.91
2018-04-29T05:29:33.531Z,962.87
2018-04-29T05:30:33.620Z,962.85
2018-04-29T05:31:33.631Z,962.86
2018-04-29T05:32:33.676Z,962.84
2018-04-29T05:33:33.729Z,962.81
2018-04-29T05:34:33.774Z,962.73
2018-04-29T05:35:33.848Z,962.66
2018-04-29T05:36:33.873Z,962.66
2018-04-29T05:37:33.920Z,962.63
2018-04-29T05:38:33.972Z,962.65
2018-04-29T05:39:34.020Z,962.72
2018-04-29T05:40:34.113Z,962.79
2018-04-29T05:41:34.117Z,962.82
2018-04-29T05:42:34.165Z,962.83
2018-04-29T05:43:34.211Z,962.77
2018-04-29T05:44:34.261Z,962.71
2018-04-29T05:45:34.337Z,962.71
2018-04-29T05:46:34.360Z,962.71
2018-04-29T05:47:34.407Z,962.72
2018-04-29T05:48:34.457Z,962.75
2018-04-29T05:49:34.505Z,962.74
2018-04-29T05:50:34.576Z,962.72
2018-04-29T05:51:34.625Z,962.69
2018-04-29T05:52:34.651Z,962.65
2018-04-29T05:53:34.699Z,962.63
2018-04-29T05:54:34.750Z,962.58
2018-04-29T05:55:34.797Z,962.56
2018-04-29T05:56:34.874Z,962.59
2018-04-29T05:57:34.894Z,962.56
2018-04-29T05:58:34.942Z,962.65
2018-04-29T05:59:34.992Z,962.66
2018-04-29T06:00:35.040Z,962.63
2018-04-29T06:01:35.120Z,962.62
2018-04-29T06:02:35.140Z,962.58
2018-04-29T06:03:35.190Z,962.59
2018-04-29T06:04:35.236Z,962.66
2018-04-29T06:05:35.285Z,962.58
2018-04-29T06:06:35.374Z,962.63
2018-04-29T06:07:35.418Z,962.67
2018-04-29T06:08:35.432Z,962.65
2018-04-29T06:09:35.482Z,962.62
2018-04-29T06:10:35.532Z,962.61
2018-04-29T06:11:35.588Z,962.60
2018-04-29T06:12:35.655Z,962.59
2018-04-29T06:13:35.681Z,962.56
2018-04-29T06:14:35.728Z,962.55
2018-04-29T06:15:35.785Z,962.52
2018-04-29T06:16:35.827Z,962.59
2018-04-29T06:17:35.904Z,962.62
2018-04-29T06:18:35.923Z,962.58
2018-04-29T06:19:35.978Z,962.61
2018-04-29T06:20:36.130Z,962.63
2018-04-29T06:21:36.071Z,962.60
2018-04-29T06:22:36.149Z,962.58
2018-04-29T06:23:36.168Z,962.56
2018-04-29T06:24:36.215Z,962.61
2018-04-29T06:25:36.271Z,962.58
2018-04-29T06:26:36.316Z,962.57
2018-04-29T06:27:36.398Z,962.51
2018-04-29T06:28:36.412Z,962.47
2018-04-29T06:29:36.459Z,962.44
2018-04-29T06:30:36.510Z,962.39
2018-04-29T06:31:36.561Z,962.38
2018-04-29T06:32:36.639Z,962.32
2018-04-29T06:33:36.656Z,962.31
2018-04-29T06:34:36.757Z,962.29
2018-04-29T06:35:36.759Z,962.24
2018-04-29T06:36:36.805Z,962.21
2018-04-29T06:37:36.877Z,962.20
2018-04-29T06:38:36.904Z,962.22
2018-04-29T06:39:36.997Z,962.22
2018-04-29T06:40:37.001Z,962.19
2018-04-29T06:41:37.055Z,962.14
2018-04-29T06:42:37.103Z,962.13
2018-04-29T06:43:37.181Z,962.10
2018-04-29T06:44:37.224Z,962.06
2018-04-29T06:45:37.251Z,962.00
2018-04-29T06:46:37.302Z,961.97
2018-04-29T06:47:37.350Z,962.03
2018-04-29T06:48:37.400Z,961.98
2018-04-29T06:49:37.478Z,961.99
2018-04-29T06:50:37.503Z,961.94
2018-04-29T06:51:37.551Z,961.99
2018-04-29T06:52:37.602Z,961.97
2018-04-29T06:53:37.652Z,961.93
2018-04-29T06:54:37.726Z,961.97
2018-04-29T06:55:37.779Z,961.94
2018-04-29T06:56:37.806Z,961.97
2018-04-29T06:57:37.855Z,961.98
2018-04-29T06:58:37.905Z,961.97
2018-04-29T06:59:37.958Z,961.92
2018-04-29T07:00:38.031Z,961.90
2018-04-29T07:01:38.070Z,961.88
2018-04-29T07:02:38.113Z,961.92
2018-04-29T07:03:38.164Z,961.85
2018-04-29T07:04:38.221Z,961.79
2018-04-29T07:05:38.344Z,961.76
2018-04-29T07:06:38.321Z,961.77
2018-04-29T07:07:38.374Z,961.72
2018-04-29T07:08:38.429Z,961.78
2018-04-29T07:09:38.477Z,961.70
2018-04-29T07:10:38.567Z,961.69
2018-04-29T07:11:38.584Z,961.65
2018-04-29T07:12:38.638Z,961.64
2018-04-29T07:13:38.690Z,961.68
2018-04-29T07:14:38.744Z,961.70
2018-04-29T07:15:38.838Z,961.70
2018-04-29T07:16:38.852Z,961.66
2018-04-29T07:17:38.904Z,961.62
2018-04-29T07:18:38.957Z,961.65
2018-04-29T07:19:39.012Z,961.64
2018-04-29T07:20:39.094Z,961.65
2018-04-29T07:21:39.118Z,961.67
2018-04-29T07:22:39.175Z,961.66
2018-04-29T07:23:39.226Z,961.63
2018-04-29T07:24:39.285Z,961.65
2018-04-29T07:25:39.358Z,961.66
2018-04-29T07:26:39.421Z,961.72
2018-04-29T07:27:39.446Z,961.70
2018-04-29T07:28:39.504Z,961.67
2018-04-29T07:29:39.554Z,961.69
2018-04-29T07:30:39.611Z,961.67
2018-04-29T07:31:39.694Z,961.68
2018-04-29T07:32:39.731Z,961.67
2018-04-29T07:33:39.782Z,961.66
2018-04-29T07:34:39.827Z,961.63
2018-04-29T07:35:39.881Z,961.68
2018-04-29T07:36:39.964Z,961.71
2018-04-29T07:37:39.989Z,961.67
2018-04-29T07:38:40.045Z,961.73
2018-04-29T07:39:40.099Z,961.74
2018-04-29T07:40:40.160Z,961.72
2018-04-29T07:41:40.236Z,961.67
2018-04-29T07:42:41.217Z,961.68
2018-04-29T07:43:40.322Z,961.67
2018-04-29T07:44:40.373Z,961.67
2018-04-29T07:45:40.431Z,961.62
2018-04-29T07:46:40.714Z,961.64
2018-04-29T07:47:40.540Z,961.66
2018-04-29T07:48:40.619Z,961.65
2018-04-29T07:49:40.651Z,961.60
2018-04-29T07:50:40.704Z,961.58
2018-04-29T07:51:40.766Z,961.54
2018-04-29T07:52:40.830Z,961.59
2018-04-29T07:53:40.894Z,961.66
2018-04-29T07:54:40.924Z,961.63
2018-04-29T07:55:40.981Z,961.65
2018-04-29T07:56:41.033Z,961.64
2018-04-29T07:57:41.090Z,961.63
2018-04-29T07:58:41.174Z,961.64
2018-04-29T07:59:41.199Z,961.60
2018-04-29T08:00:41.307Z,961.64
2018-04-29T08:01:41.310Z,961.67
2018-04-29T08:02:41.366Z,961.58
2018-04-29T08:03:41.461Z,961.60
2018-04-29T08:04:41.476Z,961.55
2018-04-29T08:05:41.531Z,961.59
2018-04-29T08:06:41.662Z,961.58
2018-04-29T08:07:42.186Z,961.60
2018-04-29T08:08:41.715Z,961.52
2018-04-29T08:09:41.749Z,961.53
2018-04-29T08:10:41.825Z,961.48
2018-04-29T08:11:41.856Z,961.52
2018-04-29T08:12:41.910Z,961.56
2018-04-29T08:13:41.966Z,961.53
2018-04-29T08:14:42.020Z,961.51
2018-04-29T08:15:42.142Z,961.56
2018-04-29T08:16:42.128Z,961.52
2018-04-29T08:17:42.181Z,961.51
2018-04-29T08:18:42.234Z,961.49
2018-04-29T08:19:42.288Z,961.51
2018-04-29T08:20:42.386Z,961.52
2018-04-29T08:21:42.401Z,961.52
2018-04-29T08:22:42.458Z,961.47
2018-04-29T08:23:42.550Z,961.53
2018-04-29T08:24:42.558Z,961.54
2018-04-29T08:25:42.642Z,961.53
2018-04-29T08:26:42.671Z,961.47
2018-04-29T08:27:42.723Z,961.56
2018-04-29T08:28:42.853Z,961.53
2018-04-29T08:29:42.830Z,961.53
2018-04-29T08:30:42.908Z,961.51
2018-04-29T08:31:42.939Z,961.55
2018-04-29T08:32:42.995Z,961.55
2018-04-29T08:33:43.050Z,961.54
2018-04-29T08:34:43.110Z,961.51
2018-04-29T08:35:43.183Z,961.47
2018-04-29T08:36:43.236Z,961.52
2018-04-29T08:37:43.266Z,961.52
2018-04-29T08:38:43.327Z,961.47
2018-04-29T08:39:43.378Z,961.47
2018-04-29T08:40:43.431Z,961.49
2018-04-29T08:41:43.510Z,961.47
2018-04-29T08:42:43.543Z,961.46
2018-04-29T08:43:43.595Z,961.39
2018-04-29T08:44:43.650Z,961.37
2018-04-29T08:45:43.705Z,961.36
2018-04-29T08:46:43.783Z,961.40
2018-04-29T08:47:43.816Z,961.35
2018-04-29T08:48:43.874Z,961.32
2018-04-29T08:49:43.925Z,961.28
2018-04-29T08:50:43.979Z,961.29
2018-04-29T08:51:44.146Z,961.26
2018-04-29T08:52:44.088Z,961.24
2018-04-29T08:53:44.145Z,961.27
2018-04-29T08:54:44.203Z,961.22
2018-04-29T08:55:44.257Z,961.23
2018-04-29T08:56:44.342Z,961.26
2018-04-29T08:57:44.367Z,961.27
2018-04-29T08:58:44.425Z,961.25
2018-04-29T08:59:44.484Z,961.28
2018-04-29T09:00:44.533Z,961.26
2018-04-29T09:01:44.673Z,961.22
2018-04-29T09:02:44.680Z,961.21
2018-04-29T09:03:44.774Z,961.24
2018-04-29T09:04:44.760Z,961.24
2018-04-29T09:05:44.814Z,961.31
2018-04-29T09:06:44.871Z,961.26
2018-04-29T09:07:44.964Z,961.26
2018-04-29T09:08:44.982Z,961.26
2018-04-29T09:09:45.037Z,961.22
2018-04-29T09:10:45.095Z,961.22
2018-04-29T09:11:45.149Z,961.22
2018-04-29T09:12:45.238Z,961.18
2018-04-29T09:13:45.262Z,961.18
2018-04-29T09:14:45.320Z,961.15
2018-04-29T09:15:45.376Z,961.04
2018-04-29T09:16:45.432Z,961.05
2018-04-29T09:17:45.532Z,961.03
2018-04-29T09:18:45.550Z,961.05
2018-04-29T09:19:45.603Z,961.06
2018-04-29T09:20:45.657Z,961.01
2018-04-29T09:21:45.716Z,960.98
2018-04-29T09:22:45.799Z,961.03
2018-04-29T09:23:45.851Z,961.02
2018-04-29T09:24:45.887Z,961.03
2018-04-29T09:25:45.939Z,961.01
2018-04-29T09:26:45.996Z,961.05
2018-04-29T09:27:46.061Z,961.04
2018-04-29T09:28:46.132Z,961.09
2018-04-29T09:29:46.165Z,961.07
2018-04-29T09:30:46.224Z,961.08
2018-04-29T09:31:46.284Z,961.10
2018-04-29T09:32:46.335Z,961.09
2018-04-29T09:33:46.415Z,961.09
2018-04-29T09:34:46.449Z,961.07
2018-04-29T09:35:46.507Z,961.03
2018-04-29T09:36:46.561Z,961.04
2018-04-29T09:37:46.620Z,961.06
2018-04-29T09:38:46.717Z,961.05
2018-04-29T09:39:46.734Z,961.01
2018-04-29T09:40:46.790Z,960.99
2018-04-29T09:41:46.848Z,960.93
2018-04-29T09:42:46.907Z,960.92
2018-04-29T09:43:46.993Z,960.97
2018-04-29T09:44:47.019Z,960.97
2018-04-29T09:45:47.077Z,960.95
2018-04-29T09:46:47.134Z,960.91
2018-04-29T09:47:47.194Z,960.90
2018-04-29T09:48:47.376Z,960.89
2018-04-29T09:49:47.307Z,960.91
2018-04-29T09:50:47.368Z,960.89
2018-04-29T09:51:47.420Z,960.86
2018-04-29T09:52:47.478Z,960.90
2018-04-29T09:53:47.571Z,960.86
2018-04-29T09:54:47.594Z,960.84
2018-04-29T09:55:47.648Z,960.87
2018-04-29T09:56:47.709Z,960.90
2018-04-29T09:57:47.763Z,960.89
2018-04-29T09:58:47.843Z,960.88
2018-04-29T09:59:47.880Z,960.85
2018-04-29T10:00:47.935Z,960.83
2018-04-29T10:01:48.019Z,960.85
2018-04-29T10:02:48.050Z,960.79
2018-04-29T10:03:48.107Z,960.77
2018-04-29T10:04:48.192Z,960.78
2018-04-29T10:05:48.220Z,960.79
2018-04-29T10:06:48.278Z,960.74
2018-04-29T10:07:48.336Z,960.72
2018-04-29T10:08:48.417Z,960.71
2018-04-29T10:09:48.489Z,960.68
2018-04-29T10:10:48.509Z,960.66
2018-04-29T10:11:48.567Z,960.63
2018-04-29T10:12:48.625Z,960.61
2018-04-29T10:13:48.680Z,960.62
2018-04-29T10:14:48.772Z,960.59
2018-04-29T10:15:48.796Z,960.55
2018-04-29T10:16:48.855Z,960.61
2018-04-29T10:17:48.909Z,960.63
2018-04-29T10:18:49.007Z,960.64
2018-04-29T10:19:49.059Z,960.67
2018-04-29T10:20:49.085Z,960.65
2018-04-29T10:21:49.144Z,960.62
2018-04-29T10:22:49.199Z,960.59
2018-04-29T10:23:49.257Z,960.50
2018-04-29T10:24:49.343Z,960.53
2018-04-29T10:25:49.399Z,960.51
2018-04-29T10:26:49.436Z,960.53
2018-04-29T10:27:49.490Z,960.44
2018-04-29T10:28:49.551Z,960.45
2018-04-29T10:29:49.602Z,960.46
2018-04-29T10:30:49.686Z,960.43
2018-04-29T10:31:49.719Z,960.45
2018-04-29T10:32:49.867Z,960.41
2018-04-29T10:33:49.835Z,960.44
2018-04-29T10:34:49.890Z,960.36
2018-04-29T10:35:49.975Z,960.39
2018-04-29T10:36:50.006Z,960.42
2018-04-29T10:37:50.066Z,960.39
2018-04-29T10:38:50.119Z,960.35
2018-04-29T10:39:50.176Z,960.34
2018-04-29T10:40:50.271Z,960.30
2018-04-29T10:41:50.301Z,960.26
2018-04-29T10:42:50.351Z,960.30
2018-04-29T10:43:50.408Z,960.32
2018-04-29T10:44:50.463Z,960.32
2018-04-29T10:45:50.555Z,960.30
2018-04-29T10:46:50.619Z,960.31
2018-04-29T10:47:50.646Z,960.27
2018-04-29T10:48:50.693Z,960.26
2018-04-29T10:49:50.755Z,960.22
2018-04-29T10:50:50.808Z,960.20
2018-04-29T10:51:50.897Z,960.22
2018-04-29T10:52:50.929Z,960.17
2018-04-29T10:53:50.986Z,960.20
2018-04-29T10:54:51.041Z,960.13
2018-04-29T10:55:51.103Z,960.12
2018-04-29T10:56:51.195Z,960.07
2018-04-29T10:57:51.219Z,960.09
2018-04-29T10:58:51.303Z,960.06
2018-04-29T10:59:51.337Z,960.07
2018-04-29T11:00:51.395Z,960.03
2018-04-29T11:01:51.475Z,960.08
2018-04-29T11:02:51.535Z,960.06
2018-04-29T11:03:51.570Z,960.03
2018-04-29T11:04:51.628Z,960.02
2018-04-29T11:05:51.688Z,959.98
2018-04-29T11:06:51.748Z,960.00
2018-04-29T11:07:51.828Z,959.96
2018-04-29T11:08:51.878Z,959.93
2018-04-29T11:09:51.931Z,959.90
2018-04-29T11:10:51.982Z,959.94
2018-04-29T11:11:52.179Z,959.97
2018-04-29T11:12:52.127Z,960.05
2018-04-29T11:13:52.159Z,960.06
2018-04-29T11:14:52.216Z,960.05
2018-04-29T11:15:52.276Z,960.01
2018-04-29T11:16:52.330Z,959.94
2018-04-29T11:17:52.418Z,959.93
2018-04-29T11:18:52.449Z,959.93
2018-04-29T11:19:52.508Z,959.95
2018-04-29T11:20:52.564Z,959.93
2018-04-29T11:21:52.623Z,959.93
2018-04-29T11:22:52.710Z,959.97
2018-04-29T11:23:52.742Z,959.95
2018-04-29T11:24:52.802Z,959.92
2018-04-29T11:25:52.858Z,959.91
2018-04-29T11:26:52.914Z,959.87
2018-04-29T11:27:53.011Z,959.82
2018-04-29T11:28:53.034Z,959.80
2018-04-29T11:29:53.089Z,959.83
2018-04-29T11:30:53.149Z,959.83
2018-04-29T11:31:53.207Z,959.81
2018-04-29T11:32:53.288Z,959.69
2018-04-29T11:33:53.412Z,959.71
2018-04-29T11:34:53.410Z,959.67
2018-04-29T11:35:53.445Z,959.69
2018-04-29T11:36:53.496Z,959.66
2018-04-29T11:37:53.559Z,959.66
2018-04-29T11:38:53.615Z,959.68
2018-04-29T11:39:53.696Z,959.75
2018-04-29T11:40:53.745Z,959.72
2018-04-29T11:41:53.797Z,959.70
2018-04-29T11:42:53.845Z,959.60
2018-04-29T11:43:53.906Z,959.60
2018-04-29T11:44:53.989Z,959.60
2018-04-29T11:45:54.096Z,959.64
2018-04-29T11:46:54.086Z,959.63
2018-04-29T11:47:54.134Z,959.60
2018-04-29T11:48:54.193Z,959.61
2018-04-29T11:49:54.270Z,959.54
2018-04-29T11:50:55.290Z,959.53
2018-04-29T11:51:54.359Z,959.56
2018-04-29T11:52:54.420Z,959.52
2018-04-29T11:53:54.476Z,959.54
2018-04-29T11:54:54.560Z,959.48
2018-04-29T11:55:54.587Z,959.58
2018-04-29T11:56:54.656Z,959.52
2018-04-29T11:57:54.701Z,959.53
2018-04-29T11:58:54.759Z,959.49
2018-04-29T11:59:54.865Z,959.53
2018-04-29T12:00:54.869Z,959.49
2018-04-29T12:01:54.933Z,959.51
2018-04-29T12:02:54.986Z,959.52
2018-04-29T12:03:55.040Z,959.42
2018-04-29T12:04:55.126Z,959.44
2018-04-29T12:05:55.152Z,959.45
2018-04-29T12:06:55.206Z,959.40
2018-04-29T12:07:55.267Z,959.36
2018-04-29T12:08:55.318Z,959.36
2018-04-29T12:09:55.407Z,959.40
2018-04-29T12:10:55.428Z,959.35
2018-04-29T12:11:55.487Z,959.43
2018-04-29T12:12:55.572Z,959.43
2018-04-29T12:13:55.594Z,959.33
2018-04-29T12:14:55.649Z,959.33
2018-04-29T12:15:55.709Z,959.34
2018-04-29T12:16:55.764Z,959.30
2018-04-29T12:17:55.845Z,959.30
2018-04-29T12:18:55.871Z,959.30
2018-04-29T12:19:55.935Z,959.26
2018-04-29T12:20:55.991Z,959.33
2018-04-29T12:21:56.065Z,959.23
2018-04-29T12:22:56.095Z,959.23
2018-04-29T12:23:56.152Z,959.27
2018-04-29T12:24:56.244Z,959.29
2018-04-29T12:25:56.267Z,959.23
2018-04-29T12:26:56.357Z,959.21
2018-04-29T12:27:56.376Z,959.25
2018-04-29T12:28:56.429Z,959.20